• Join FlightAware (Why Join?)
  • Login
  • US Flag 
11:55AM EDT


 

Airport Tracker/Info


-or-


 

Live Flight TrackerFlight Track Log ✈ UAL5822 ✈ 19-Jun-2013 ✈ KSDF - KORD

Flight Track Log - Related Links

Times and Time Zones

All times are in EDT time to prevent confusion due to time zone crossing. See the UAL5822 flight status page for this flight to view local times or setup timezone preferences in your user account.

Time Position Orientation Groundspeed Altitude Reporting Facility
EDT Latitude Longitude Course Direction KTS MPH feet Rate Location/Type
05:39AM 38.1000 -85.7000 345° North 218 251 3,100  Level Louisville TRACON
05:40AM 38.0489 -85.6678 154° Southeast 254 292 5,000 2,340 Climbing Indianapolis Center
05:41AM 38.0842 -85.6008 56° Northeast 273 314 7,700 2,520 Climbing Indianapolis Center
05:42AM 38.1597 -85.5997 North 270 311 10,100 1,800 Climbing Indianapolis Center
05:43AM 38.2425 -85.6025 358° North 291 335 11,400 1,140 Climbing Indianapolis Center
05:44AM 38.3070 -85.9801 345° North  Level FlightAware Approximate
05:44AM 38.3403 -85.6044 359° North 344 396 12,400  Level Indianapolis Center
05:45AM 38.4403 -85.6086 358° North 356 410 13,900 1,500 Climbing Indianapolis Center
05:46AM 38.5414 -85.6131 358° North 362 417 15,500 1,380 Climbing Indianapolis Center
05:47AM 38.6383 -85.6156 359° North 361 415 16,800 1,200 Climbing Indianapolis Center
05:48AM 38.7392 -85.6189 359° North 363 418 18,000 1,320 Climbing Indianapolis Center
05:49AM 38.8631 -85.6228 359° North 369 425 19,500 1,320 Climbing Indianapolis Center
05:50AM 38.9681 -85.6258 359° North 377 434 20,700 1,380 Climbing Indianapolis Center
05:51AM 39.0725 -85.6308 358° North 378 435 22,400 1,440 Climbing Indianapolis Center
05:52AM 39.1769 -85.6336 359° North 376 433 23,700 780 Climbing Indianapolis Center
05:53AM 39.2828 -85.6372 358° North 379 436 24,000 120 Climbing Indianapolis Center
05:54AM 39.3956 -85.6408 359° North 402 463 24,000  Level Indianapolis Center
05:55AM 39.5122 -85.6447 359° North 419 482 24,000  Level Indianapolis Center
05:56AM 39.6278 -85.6492 358° North 418 481 24,000  Level Indianapolis Center
05:57AM 39.7425 -85.6525 359° North 416 479 24,000  Level Indianapolis Center
05:58AM 39.8558 -85.6561 359° North 412 474 24,000  Level Indianapolis Center
05:59AM 39.9694 -85.6600 358° North 411 473 24,000  Level Indianapolis Center
06:00AM 40.0842 -85.6647 358° North 414 476 24,000  Level Indianapolis Center
06:01AM 40.1994 -85.6697 358° North 416 479 24,000  Level Indianapolis Center
06:02AM 40.3122 -85.6725 359° North 410 472 24,000  Level Indianapolis Center
06:02AM 40.3969 -85.7036 344° North 407 468 24,000  Level Chicago Center
06:03AM 40.4761 -85.8033 316° Northwest 402 463 24,000  Level Chicago Center
06:04AM 40.5556 -85.9097 315° West 406 467 24,000  Level Chicago Center
06:05AM 40.6361 -86.0194 314° West 414 476 24,000  Level Chicago Center
06:06AM 40.7083 -86.1178 314° West 414 476 24,000  Level Chicago Center
06:07AM 40.7894 -86.2278 314° West 416 479 24,000  Level Chicago Center
06:08AM 40.8692 -86.3383 314° West 416 479 24,000  Level Chicago Center
06:09AM 40.9497 -86.4486 314° West 415 478 24,000  Level Chicago Center
06:10AM 41.0303 -86.5597 314° West 417 480 24,000 -840 Level Chicago Center
06:11AM 41.1092 -86.6683 314° West 411 473 22,400 -1,800 Descending Chicago Center
06:12AM 41.1872 -86.7775 314° West 399 459 20,400 -2,100 Descending Chicago Center
06:13AM 41.2608 -86.8800 314° West 387 445 18,200 -2,280 Descending Chicago Center
06:14AM 41.3481 -87.0022 314° West 383 441 15,900 -2,280 Descending Chicago Center
06:15AM 41.4192 -87.1022 313° West 380 437 13,700 -2,040 Descending Chicago Center
06:16AM 41.4886 -87.2003 313° West 371 427 11,800 -1,380 Descending Chicago Center
06:18AM 41.5561 -87.2964 313° West 362 417 11,000 -420 Descending Chicago Center
06:19AM 41.6236 -87.3933 313° West 359 413 11,000  Level Chicago Center
06:20AM 41.6911 -87.4897 313° West 360 414 11,000  Level Chicago Center
06:21AM 41.7578 -87.5850 313° West 356 410 11,000 -300 Level Chicago Center
06:22AM 41.8167 -87.6683 313° West 316 364 10,400 -1,080 Descending Chicago Center
06:23AM 41.8603 -87.7478 306° West 273 314 8,900 -1,560 Descending Chicago Center
06:24AM 41.8931 -87.8358 297° West 267 307 7,300 -960 Descending Chicago Center
06:25AM 41.9247 -87.9206 297° West 261 300 7,000 -180 Descending Chicago Center
06:26AM 41.9617 -88.0175 297° West 244 281 7,000  Level Chicago Center
06:27AM 41.9917 -88.0917 299° West 230 265 7,000 -660 Level Chicago Center
06:28AM 42.0400 -88.1486 319° Northwest 234 269 5,700 -1,020 Descending Chicago Center
06:29AM 42.0867 -88.2000 321° Northwest 225 259 5,000 -600 Descending Chicago Center
06:30AM 42.1314 -88.1408 44° Northeast 231 266 4,500 -600 Descending Chicago Center
06:30AM 42.1167 -88.0833 109° East 200 230 4,000 -660 Descending Chicago TRACON
06:31AM 42.0833 -88.0333 132° Southeast 162 186 3,400 -600 Descending Chicago TRACON